sensor_id;sensor_type;location;lat;lon;timestamp;temperature;humidity
10722;DHT22;5412;59.450;18.124;2023-03-05T00:00:13;-0.10;99.90
10722;DHT22;5412;59.450;18.124;2023-03-05T00:02:39;-0.10;99.90
10722;DHT22;5412;59.450;18.124;2023-03-05T00:05:05;-0.10;99.90
10722;DHT22;5412;59.450;18.124;2023-03-05T00:07:31;-0.10;99.90
10722;DHT22;5412;59.450;18.124;2023-03-05T00:10:01;-0.10;99.90
10722;DHT22;5412;59.450;18.124;2023-03-05T00:12:27;-0.10;99.90
10722;DHT22;5412;59.450;18.124;2023-03-05T00:14:53;-0.20;99.90
10722;DHT22;5412;59.450;18.124;2023-03-05T00:17:19;-0.10;99.90
10722;DHT22;5412;59.450;18.124;2023-03-05T00:19:45;-0.10;99.90
10722;DHT22;5412;59.450;18.124;2023-03-05T00:22:11;-0.10;99.90
10722;DHT22;5412;59.450;18.124;2023-03-05T00:24:36;-0.10;99.90
10722;DHT22;5412;59.450;18.124;2023-03-05T00:27:02;-0.10;99.90
10722;DHT22;5412;59.450;18.124;2023-03-05T00:29:28;-0.10;99.90
10722;DHT22;5412;59.450;18.124;2023-03-05T00:31:54;-0.20;99.90
10722;DHT22;5412;59.450;18.124;2023-03-05T00:34:20;-0.20;99.90
10722;DHT22;5412;59.450;18.124;2023-03-05T00:36:49;-0.20;99.90
10722;DHT22;5412;59.450;18.124;2023-03-05T00:39:19;-0.20;99.90
10722;DHT22;5412;59.450;18.124;2023-03-05T00:41:45;-0.10;99.90
10722;DHT22;5412;59.450;18.124;2023-03-05T00:44:11;-0.20;99.90
10722;DHT22;5412;59.450;18.124;2023-03-05T00:46:37;-0.30;99.90
10722;DHT22;5412;59.450;18.124;2023-03-05T00:49:03;-0.30;99.90
10722;DHT22;5412;59.450;18.124;2023-03-05T00:51:29;-0.30;99.90
10722;DHT22;5412;59.450;18.124;2023-03-05T00:53:55;-0.30;99.90
10722;DHT22;5412;59.450;18.124;2023-03-05T00:56:21;-0.30;99.90
10722;DHT22;5412;59.450;18.124;2023-03-05T00:58:47;-0.30;99.90
10722;DHT22;5412;59.450;18.124;2023-03-05T01:01:13;-0.30;99.90
10722;DHT22;5412;59.450;18.124;2023-03-05T01:03:39;-0.30;99.90
10722;DHT22;5412;59.450;18.124;2023-03-05T01:06:11;-0.40;99.90
10722;DHT22;5412;59.450;18.124;2023-03-05T01:08:40;-0.30;99.90
10722;DHT22;5412;59.450;18.124;2023-03-05T01:11:06;-0.30;99.90
10722;DHT22;5412;59.450;18.124;2023-03-05T01:13:32;-0.40;99.90
10722;DHT22;5412;59.450;18.124;2023-03-05T01:15:59;-0.30;99.90
10722;DHT22;5412;59.450;18.124;2023-03-05T01:18:25;-0.20;99.90
10722;DHT22;5412;59.450;18.124;2023-03-05T01:20:51;-0.30;99.90
10722;DHT22;5412;59.450;18.124;2023-03-05T01:23:20;-0.40;99.90
10722;DHT22;5412;59.450;18.124;2023-03-05T01:25:53;-0.40;99.90
10722;DHT22;5412;59.450;18.124;2023-03-05T01:28:19;-0.40;99.90
10722;DHT22;5412;59.450;18.124;2023-03-05T01:30:48;-0.40;99.90
10722;DHT22;5412;59.450;18.124;2023-03-05T01:33:13;-0.30;99.90
10722;DHT22;5412;59.450;18.124;2023-03-05T01:35:39;-0.30;99.90
10722;DHT22;5412;59.450;18.124;2023-03-05T01:38:05;-0.30;99.90
10722;DHT22;5412;59.450;18.124;2023-03-05T01:40:31;-0.40;99.90
10722;DHT22;5412;59.450;18.124;2023-03-05T01:43:18;-0.30;99.90
10722;DHT22;5412;59.450;18.124;2023-03-05T01:46:16;-0.40;99.90
10722;DHT22;5412;59.450;18.124;2023-03-05T01:48:49;-0.40;99.90
10722;DHT22;5412;59.450;18.124;2023-03-05T01:51:19;-0.40;99.90
10722;DHT22;5412;59.450;18.124;2023-03-05T01:53:45;-0.50;99.90
10722;DHT22;5412;59.450;18.124;2023-03-05T01:56:11;-0.50;99.90
10722;DHT22;5412;59.450;18.124;2023-03-05T01:58:37;-0.50;99.90
10722;DHT22;5412;59.450;18.124;2023-03-05T02:01:04;-0.50;99.90
10722;DHT22;5412;59.450;18.124;2023-03-05T02:03:31;-0.40;99.90
10722;DHT22;5412;59.450;18.124;2023-03-05T02:05:57;-0.40;99.90
10722;DHT22;5412;59.450;18.124;2023-03-05T02:08:23;-0.40;99.90
10722;DHT22;5412;59.450;18.124;2023-03-05T02:10:51;-0.50;99.90
10722;DHT22;5412;59.450;18.124;2023-03-05T02:13:22;-0.50;99.90
10722;DHT22;5412;59.450;18.124;2023-03-05T02:15:48;-0.50;99.90
10722;DHT22;5412;59.450;18.124;2023-03-05T02:18:16;-0.60;99.90
10722;DHT22;5412;59.450;18.124;2023-03-05T02:20:49;-0.60;99.90
10722;DHT22;5412;59.450;18.124;2023-03-05T02:23:17;-0.60;99.90
10722;DHT22;5412;59.450;18.124;2023-03-05T02:25:43;-0.50;99.90
10722;DHT22;5412;59.450;18.124;2023-03-05T02:30:53;-0.50;99.90
10722;DHT22;5412;59.450;18.124;2023-03-05T02:33:19;-0.50;99.90
10722;DHT22;5412;59.450;18.124;2023-03-05T02:35:46;-0.50;99.90
10722;DHT22;5412;59.450;18.124;2023-03-05T02:38:16;-0.60;99.90
10722;DHT22;5412;59.450;18.124;2023-03-05T02:40:42;-0.70;99.90
10722;DHT22;5412;59.450;18.124;2023-03-05T02:43:09;-0.80;99.90
10722;DHT22;5412;59.450;18.124;2023-03-05T02:45:34;-0.70;99.90
10722;DHT22;5412;59.450;18.124;2023-03-05T02:48:00;-0.80;99.90
10722;DHT22;5412;59.450;18.124;2023-03-05T02:50:27;-0.80;99.90
10722;DHT22;5412;59.450;18.124;2023-03-05T02:52:53;-0.80;99.90
10722;DHT22;5412;59.450;18.124;2023-03-05T02:55:19;-0.80;99.90
10722;DHT22;5412;59.450;18.124;2023-03-05T02:57:44;-0.80;99.90
10722;DHT22;5412;59.450;18.124;2023-03-05T03:00:11;-0.80;99.90
10722;DHT22;5412;59.450;18.124;2023-03-05T03:02:37;-0.80;99.90
10722;DHT22;5412;59.450;18.124;2023-03-05T03:05:03;-0.80;99.90
10722;DHT22;5412;59.450;18.124;2023-03-05T03:07:29;-0.80;99.90
10722;DHT22;5412;59.450;18.124;2023-03-05T03:09:55;-0.80;99.90
10722;DHT22;5412;59.450;18.124;2023-03-05T03:12:21;-0.90;99.90
10722;DHT22;5412;59.450;18.124;2023-03-05T03:14:46;-0.90;99.90
10722;DHT22;5412;59.450;18.124;2023-03-05T03:17:15;-0.80;99.90
10722;DHT22;5412;59.450;18.124;2023-03-05T03:19:41;-0.80;99.90
10722;DHT22;5412;59.450;18.124;2023-03-05T03:22:09;-0.80;99.90
10722;DHT22;5412;59.450;18.124;2023-03-05T03:24:36;-0.80;99.90
10722;DHT22;5412;59.450;18.124;2023-03-05T03:27:03;-0.80;99.90
10722;DHT22;5412;59.450;18.124;2023-03-05T03:29:29;-0.90;99.90
10722;DHT22;5412;59.450;18.124;2023-03-05T03:31:55;-0.90;99.90
10722;DHT22;5412;59.450;18.124;2023-03-05T03:34:21;-0.90;99.90
10722;DHT22;5412;59.450;18.124;2023-03-05T03:36:48;-0.30;99.90
10722;DHT22;5412;59.450;18.124;2023-03-05T03:39:15;-0.90;99.90
10722;DHT22;5412;59.450;18.124;2023-03-05T03:41:43;-0.90;99.90
10722;DHT22;5412;59.450;18.124;2023-03-05T03:44:09;-0.90;99.90
10722;DHT22;5412;59.450;18.124;2023-03-05T03:46:39;-0.80;99.90
10722;DHT22;5412;59.450;18.124;2023-03-05T03:49:06;-0.80;99.90
10722;DHT22;5412;59.450;18.124;2023-03-05T03:51:33;-0.80;99.90
10722;DHT22;5412;59.450;18.124;2023-03-05T03:53:59;-0.90;99.90
10722;DHT22;5412;59.450;18.124;2023-03-05T03:56:25;-1.00;99.90
10722;DHT22;5412;59.450;18.124;2023-03-05T03:58:52;-1.00;99.90
10722;DHT22;5412;59.450;18.124;2023-03-05T04:01:19;-1.10;99.90
10722;DHT22;5412;59.450;18.124;2023-03-05T04:03:45;-1.10;99.90
10722;DHT22;5412;59.450;18.124;2023-03-05T04:06:11;-1.10;99.90
10722;DHT22;5412;59.450;18.124;2023-03-05T04:08:37;-1.00;99.90
10722;DHT22;5412;59.450;18.124;2023-03-05T04:11:03;-1.10;99.90
10722;DHT22;5412;59.450;18.124;2023-03-05T04:13:29;-1.00;99.90
10722;DHT22;5412;59.450;18.124;2023-03-05T04:15:55;-1.10;99.90
10722;DHT22;5412;59.450;18.124;2023-03-05T04:18:21;-1.00;99.90
10722;DHT22;5412;59.450;18.124;2023-03-05T04:20:47;-1.10;99.90
10722;DHT22;5412;59.450;18.124;2023-03-05T04:23:13;-1.10;99.90
10722;DHT22;5412;59.450;18.124;2023-03-05T04:25:39;-1.10;99.90
10722;DHT22;5412;59.450;18.124;2023-03-05T04:28:05;-1.10;99.90
10722;DHT22;5412;59.450;18.124;2023-03-05T04:30:31;-1.10;99.90
10722;DHT22;5412;59.450;18.124;2023-03-05T04:32:57;-1.20;99.90
10722;DHT22;5412;59.450;18.124;2023-03-05T04:35:23;-1.10;99.90
10722;DHT22;5412;59.450;18.124;2023-03-05T04:37:49;-1.20;99.90
10722;DHT22;5412;59.450;18.124;2023-03-05T04:40:15;-1.20;99.90
10722;DHT22;5412;59.450;18.124;2023-03-05T04:42:41;-1.20;99.90
10722;DHT22;5412;59.450;18.124;2023-03-05T04:45:07;-1.20;99.90
10722;DHT22;5412;59.450;18.124;2023-03-05T04:47:33;-1.20;99.90
10722;DHT22;5412;59.450;18.124;2023-03-05T04:49:59;-1.20;99.90
10722;DHT22;5412;59.450;18.124;2023-03-05T04:52:25;-1.10;99.90
10722;DHT22;5412;59.450;18.124;2023-03-05T04:54:51;-1.10;99.90
10722;DHT22;5412;59.450;18.124;2023-03-05T04:57:16;-1.10;99.90
10722;DHT22;5412;59.450;18.124;2023-03-05T04:59:42;-1.10;99.90
10722;DHT22;5412;59.450;18.124;2023-03-05T05:02:08;-1.20;99.90
10722;DHT22;5412;59.450;18.124;2023-03-05T05:04:34;-1.20;99.90
10722;DHT22;5412;59.450;18.124;2023-03-05T05:07:01;-1.20;99.90
10722;DHT22;5412;59.450;18.124;2023-03-05T05:09:27;-1.10;99.90
10722;DHT22;5412;59.450;18.124;2023-03-05T05:11:52;-1.10;99.90
10722;DHT22;5412;59.450;18.124;2023-03-05T05:14:19;-1.20;99.90
10722;DHT22;5412;59.450;18.124;2023-03-05T05:16:45;-1.20;99.90
10722;DHT22;5412;59.450;18.124;2023-03-05T05:19:10;-1.30;99.90
10722;DHT22;5412;59.450;18.124;2023-03-05T05:21:36;-1.30;99.90
10722;DHT22;5412;59.450;18.124;2023-03-05T05:24:02;-1.20;99.90
10722;DHT22;5412;59.450;18.124;2023-03-05T05:26:28;-1.30;99.90
10722;DHT22;5412;59.450;18.124;2023-03-05T05:28:54;-1.20;99.90
10722;DHT22;5412;59.450;18.124;2023-03-05T05:31:20;-1.30;99.90
10722;DHT22;5412;59.450;18.124;2023-03-05T05:33:46;-1.30;99.90
10722;DHT22;5412;59.450;18.124;2023-03-05T05:36:13;-1.30;99.90
10722;DHT22;5412;59.450;18.124;2023-03-05T05:38:39;-1.40;99.90
10722;DHT22;5412;59.450;18.124;2023-03-05T05:41:16;-1.40;99.90
10722;DHT22;5412;59.450;18.124;2023-03-05T05:43:42;-1.40;99.90
10722;DHT22;5412;59.450;18.124;2023-03-05T05:46:12;-1.50;99.90
10722;DHT22;5412;59.450;18.124;2023-03-05T05:48:39;-1.50;99.90
10722;DHT22;5412;59.450;18.124;2023-03-05T05:51:06;-1.50;99.90
10722;DHT22;5412;59.450;18.124;2023-03-05T05:53:32;-1.50;99.90
10722;DHT22;5412;59.450;18.124;2023-03-05T05:55:58;-1.40;99.90
10722;DHT22;5412;59.450;18.124;2023-03-05T05:58:24;-1.40;99.90
10722;DHT22;5412;59.450;18.124;2023-03-05T06:00:49;-1.40;99.90
10722;DHT22;5412;59.450;18.124;2023-03-05T06:03:15;-1.40;99.90
10722;DHT22;5412;59.450;18.124;2023-03-05T06:05:42;-1.40;99.90
10722;DHT22;5412;59.450;18.124;2023-03-05T06:08:08;-1.30;99.90
10722;DHT22;5412;59.450;18.124;2023-03-05T06:10:34;-1.30;99.90
10722;DHT22;5412;59.450;18.124;2023-03-05T06:13:00;-1.30;99.90
10722;DHT22;5412;59.450;18.124;2023-03-05T06:15:26;-1.10;99.90
10722;DHT22;5412;59.450;18.124;2023-03-05T06:17:52;-1.20;99.90
10722;DHT22;5412;59.450;18.124;2023-03-05T06:20:19;-1.20;99.90
10722;DHT22;5412;59.450;18.124;2023-03-05T06:22:45;-1.10;99.90
10722;DHT22;5412;59.450;18.124;2023-03-05T06:25:11;-1.10;99.90
10722;DHT22;5412;59.450;18.124;2023-03-05T06:27:38;-1.10;99.90
10722;DHT22;5412;59.450;18.124;2023-03-05T06:30:05;-1.00;99.90
10722;DHT22;5412;59.450;18.124;2023-03-05T06:32:31;-1.10;99.90
10722;DHT22;5412;59.450;18.124;2023-03-05T06:34:57;-1.00;99.90
10722;DHT22;5412;59.450;18.124;2023-03-05T06:37:22;-1.00;99.90
10722;DHT22;5412;59.450;18.124;2023-03-05T06:39:48;-1.00;99.90
10722;DHT22;5412;59.450;18.124;2023-03-05T06:42:14;-1.00;99.90
10722;DHT22;5412;59.450;18.124;2023-03-05T06:44:42;-0.90;99.90
10722;DHT22;5412;59.450;18.124;2023-03-05T06:47:08;-1.00;99.90
10722;DHT22;5412;59.450;18.124;2023-03-05T06:49:36;-1.00;99.90
10722;DHT22;5412;59.450;18.124;2023-03-05T06:52:03;-0.90;99.90
10722;DHT22;5412;59.450;18.124;2023-03-05T06:54:28;-0.70;99.90
10722;DHT22;5412;59.450;18.124;2023-03-05T06:56:54;-0.80;99.90
10722;DHT22;5412;59.450;18.124;2023-03-05T06:59:20;-0.70;99.90
10722;DHT22;5412;59.450;18.124;2023-03-05T07:01:46;-0.70;99.90
10722;DHT22;5412;59.450;18.124;2023-03-05T07:04:13;-0.50;99.90
10722;DHT22;5412;59.450;18.124;2023-03-05T07:06:39;-0.60;99.90
10722;DHT22;5412;59.450;18.124;2023-03-05T07:09:07;-0.60;99.90
10722;DHT22;5412;59.450;18.124;2023-03-05T07:11:35;-0.50;99.90
10722;DHT22;5412;59.450;18.124;2023-03-05T07:14:01;-0.40;99.90
10722;DHT22;5412;59.450;18.124;2023-03-05T07:16:29;-0.40;99.90
10722;DHT22;5412;59.450;18.124;2023-03-05T07:18:56;-0.40;99.90
10722;DHT22;5412;59.450;18.124;2023-03-05T07:21:27;-0.20;99.90
10722;DHT22;5412;59.450;18.124;2023-03-05T07:23:58;-0.20;99.90
10722;DHT22;5412;59.450;18.124;2023-03-05T07:26:24;-0.20;99.90
10722;DHT22;5412;59.450;18.124;2023-03-05T07:28:51;-0.10;99.90
10722;DHT22;5412;59.450;18.124;2023-03-05T07:31:20;-0.20;99.90
10722;DHT22;5412;59.450;18.124;2023-03-05T07:33:47;0.00;99.90
10722;DHT22;5412;59.450;18.124;2023-03-05T07:36:13;0.00;99.90
10722;DHT22;5412;59.450;18.124;2023-03-05T07:38:39;0.10;99.90
10722;DHT22;5412;59.450;18.124;2023-03-05T07:41:07;0.20;99.90
10722;DHT22;5412;59.450;18.124;2023-03-05T07:43:33;0.30;99.90
10722;DHT22;5412;59.450;18.124;2023-03-05T07:46:03;0.30;99.90
10722;DHT22;5412;59.450;18.124;2023-03-05T07:48:28;0.40;99.90
10722;DHT22;5412;59.450;18.124;2023-03-05T07:51:05;0.30;99.90
10722;DHT22;5412;59.450;18.124;2023-03-05T07:53:32;0.40;99.90
10722;DHT22;5412;59.450;18.124;2023-03-05T07:55:57;0.40;99.90
10722;DHT22;5412;59.450;18.124;2023-03-05T07:58:23;0.40;99.90
10722;DHT22;5412;59.450;18.124;2023-03-05T08:00:49;0.50;99.90
10722;DHT22;5412;59.450;18.124;2023-03-05T08:03:15;0.70;99.90
10722;DHT22;5412;59.450;18.124;2023-03-05T08:05:41;0.90;99.90
10722;DHT22;5412;59.450;18.124;2023-03-05T08:08:07;0.90;99.90
10722;DHT22;5412;59.450;18.124;2023-03-05T08:10:34;1.00;99.90
10722;DHT22;5412;59.450;18.124;2023-03-05T08:13:01;0.90;99.90
10722;DHT22;5412;59.450;18.124;2023-03-05T08:15:27;1.20;99.90
10722;DHT22;5412;59.450;18.124;2023-03-05T08:17:54;1.10;99.90
10722;DHT22;5412;59.450;18.124;2023-03-05T08:20:20;1.30;99.90
10722;DHT22;5412;59.450;18.124;2023-03-05T08:22:46;1.40;99.90
10722;DHT22;5412;59.450;18.124;2023-03-05T08:25:12;1.50;99.90
10722;DHT22;5412;59.450;18.124;2023-03-05T08:27:39;1.60;99.90
10722;DHT22;5412;59.450;18.124;2023-03-05T08:30:07;1.50;99.90
10722;DHT22;5412;59.450;18.124;2023-03-05T08:32:33;1.60;99.90
10722;DHT22;5412;59.450;18.124;2023-03-05T08:34:58;1.60;99.90
10722;DHT22;5412;59.450;18.124;2023-03-05T08:37:25;1.40;99.90
10722;DHT22;5412;59.450;18.124;2023-03-05T08:39:51;1.40;99.90
10722;DHT22;5412;59.450;18.124;2023-03-05T08:42:17;1.40;99.90
10722;DHT22;5412;59.450;18.124;2023-03-05T08:44:43;1.20;99.90
10722;DHT22;5412;59.450;18.124;2023-03-05T08:47:08;1.30;99.90
10722;DHT22;5412;59.450;18.124;2023-03-05T08:49:34;1.30;99.90
10722;DHT22;5412;59.450;18.124;2023-03-05T08:52:00;1.30;99.90
10722;DHT22;5412;59.450;18.124;2023-03-05T08:54:25;1.30;99.90
10722;DHT22;5412;59.450;18.124;2023-03-05T08:56:51;1.30;99.90
10722;DHT22;5412;59.450;18.124;2023-03-05T08:59:17;1.20;99.90
10722;DHT22;5412;59.450;18.124;2023-03-05T09:01:43;1.20;99.90
10722;DHT22;5412;59.450;18.124;2023-03-05T09:04:08;1.30;99.90
10722;DHT22;5412;59.450;18.124;2023-03-05T09:06:34;1.20;99.90
10722;DHT22;5412;59.450;18.124;2023-03-05T09:09:03;1.20;99.90
10722;DHT22;5412;59.450;18.124;2023-03-05T09:11:29;1.30;99.90
10722;DHT22;5412;59.450;18.124;2023-03-05T09:13:55;1.30;99.90
10722;DHT22;5412;59.450;18.124;2023-03-05T09:16:21;1.40;99.90
10722;DHT22;5412;59.450;18.124;2023-03-05T09:18:46;1.30;99.90
10722;DHT22;5412;59.450;18.124;2023-03-05T09:21:14;1.50;99.90
10722;DHT22;5412;59.450;18.124;2023-03-05T09:23:41;1.70;99.90
10722;DHT22;5412;59.450;18.124;2023-03-05T09:26:08;1.90;99.90
10722;DHT22;5412;59.450;18.124;2023-03-05T09:28:36;2.10;99.90
10722;DHT22;5412;59.450;18.124;2023-03-05T09:31:06;2.10;99.90
10722;DHT22;5412;59.450;18.124;2023-03-05T09:33:32;2.10;99.90
10722;DHT22;5412;59.450;18.124;2023-03-05T09:35:59;2.10;99.90
10722;DHT22;5412;59.450;18.124;2023-03-05T09:38:26;2.10;99.90
10722;DHT22;5412;59.450;18.124;2023-03-05T09:51:44;2.30;99.90
10722;DHT22;5412;59.450;18.124;2023-03-05T09:54:20;2.60;99.90
10722;DHT22;5412;59.450;18.124;2023-03-05T09:56:50;2.10;99.90
10722;DHT22;5412;59.450;18.124;2023-03-05T09:59:50;2.00;99.90
10722;DHT22;5412;59.450;18.124;2023-03-05T10:02:49;2.10;99.90
10722;DHT22;5412;59.450;18.124;2023-03-05T10:05:23;2.00;99.90
10722;DHT22;5412;59.450;18.124;2023-03-05T10:08:00;2.00;99.90
10722;DHT22;5412;59.450;18.124;2023-03-05T10:10:43;2.10;99.90
10722;DHT22;5412;59.450;18.124;2023-03-05T10:13:21;2.10;99.90
10722;DHT22;5412;59.450;18.124;2023-03-05T10:21:45;2.40;99.90
10722;DHT22;5412;59.450;18.124;2023-03-05T10:45:25;2.40;99.90
10722;DHT22;5412;59.450;18.124;2023-03-05T10:50:46;2.60;99.90
10722;DHT22;5412;59.450;18.124;2023-03-05T10:56:26;2.40;99.90
10722;DHT22;5412;59.450;18.124;2023-03-05T10:58:52;2.40;99.90
10722;DHT22;5412;59.450;18.124;2023-03-05T11:04:24;2.50;99.90
10722;DHT22;5412;59.450;18.124;2023-03-05T11:06:50;2.60;99.90
10722;DHT22;5412;59.450;18.124;2023-03-05T11:09:28;2.50;99.90
10722;DHT22;5412;59.450;18.124;2023-03-05T11:12:19;2.60;99.90
10722;DHT22;5412;59.450;18.124;2023-03-05T11:23:11;2.80;99.90
10722;DHT22;5412;59.450;18.124;2023-03-05T11:28:33;2.60;99.90
10722;DHT22;5412;59.450;18.124;2023-03-05T11:31:18;2.90;99.90
10722;DHT22;5412;59.450;18.124;2023-03-05T11:36:34;2.80;99.90
10722;DHT22;5412;59.450;18.124;2023-03-05T11:44:25;3.00;99.90
10722;DHT22;5412;59.450;18.124;2023-03-05T11:49:51;3.30;99.90
10722;DHT22;5412;59.450;18.124;2023-03-05T11:52:30;3.40;99.90
10722;DHT22;5412;59.450;18.124;2023-03-05T11:55:12;3.40;99.90
10722;DHT22;5412;59.450;18.124;2023-03-05T11:58:10;3.20;99.90
10722;DHT22;5412;59.450;18.124;2023-03-05T12:00:43;3.00;99.90
10722;DHT22;5412;59.450;18.124;2023-03-05T12:03:16;2.90;99.90
10722;DHT22;5412;59.450;18.124;2023-03-05T12:05:49;2.80;99.90
10722;DHT22;5412;59.450;18.124;2023-03-05T12:08:24;3.00;99.90
10722;DHT22;5412;59.450;18.124;2023-03-05T12:10:52;3.00;99.90
10722;DHT22;5412;59.450;18.124;2023-03-05T12:13:34;3.20;99.90
10722;DHT22;5412;59.450;18.124;2023-03-05T12:16:15;3.10;99.90
10722;DHT22;5412;59.450;18.124;2023-03-05T12:21:49;2.80;99.90
10722;DHT22;5412;59.450;18.124;2023-03-05T12:32:51;2.50;99.90
10722;DHT22;5412;59.450;18.124;2023-03-05T12:35:02;2.20;99.90
10722;DHT22;5412;59.450;18.124;2023-03-05T12:58:07;2.20;99.90
10722;DHT22;5412;59.450;18.124;2023-03-05T13:00:45;2.20;99.90
10722;DHT22;5412;59.450;18.124;2023-03-05T13:03:20;2.20;99.90
10722;DHT22;5412;59.450;18.124;2023-03-05T13:05:52;2.10;99.90
10722;DHT22;5412;59.450;18.124;2023-03-05T13:08:32;2.20;99.90
10722;DHT22;5412;59.450;18.124;2023-03-05T13:13:37;1.60;99.90
10722;DHT22;5412;59.450;18.124;2023-03-05T13:16:19;1.60;99.90
10722;DHT22;5412;59.450;18.124;2023-03-05T13:18:48;1.80;99.90
10722;DHT22;5412;59.450;18.124;2023-03-05T13:21:16;1.80;99.90
10722;DHT22;5412;59.450;18.124;2023-03-05T13:23:48;1.80;99.90
10722;DHT22;5412;59.450;18.124;2023-03-05T13:26:15;1.90;99.90
10722;DHT22;5412;59.450;18.124;2023-03-05T13:28:44;1.70;99.90
10722;DHT22;5412;59.450;18.124;2023-03-05T13:31:26;1.70;99.90
10722;DHT22;5412;59.450;18.124;2023-03-05T13:33:56;1.90;99.90
10722;DHT22;5412;59.450;18.124;2023-03-05T13:36:24;1.90;99.90
10722;DHT22;5412;59.450;18.124;2023-03-05T13:38:51;1.90;99.90
10722;DHT22;5412;59.450;18.124;2023-03-05T13:41:24;2.00;99.90
10722;DHT22;5412;59.450;18.124;2023-03-05T13:43:56;2.00;99.90
10722;DHT22;5412;59.450;18.124;2023-03-05T13:46:31;1.90;99.90
10722;DHT22;5412;59.450;18.124;2023-03-05T13:49:22;1.90;99.90
10722;DHT22;5412;59.450;18.124;2023-03-05T13:51:56;1.90;99.90
10722;DHT22;5412;59.450;18.124;2023-03-05T13:54:23;1.90;99.90
10722;DHT22;5412;59.450;18.124;2023-03-05T13:59:21;1.60;99.90
10722;DHT22;5412;59.450;18.124;2023-03-05T14:01:48;1.60;99.90
10722;DHT22;5412;59.450;18.124;2023-03-05T14:06:47;1.60;99.90
10722;DHT22;5412;59.450;18.124;2023-03-05T14:09:25;1.50;99.90
10722;DHT22;5412;59.450;18.124;2023-03-05T14:12:05;1.70;99.90
10722;DHT22;5412;59.450;18.124;2023-03-05T14:14:37;1.70;99.90
10722;DHT22;5412;59.450;18.124;2023-03-05T14:22:45;1.60;99.90
10722;DHT22;5412;59.450;18.124;2023-03-05T14:25:32;1.80;99.90
10722;DHT22;5412;59.450;18.124;2023-03-05T14:28:00;1.80;99.90
10722;DHT22;5412;59.450;18.124;2023-03-05T14:30:26;1.70;99.90
10722;DHT22;5412;59.450;18.124;2023-03-05T14:32:54;1.70;99.90
10722;DHT22;5412;59.450;18.124;2023-03-05T14:35:26;1.70;99.90
10722;DHT22;5412;59.450;18.124;2023-03-05T14:37:54;1.70;99.90
10722;DHT22;5412;59.450;18.124;2023-03-05T14:40:30;1.70;99.90
10722;DHT22;5412;59.450;18.124;2023-03-05T14:43:07;1.80;99.90
10722;DHT22;5412;59.450;18.124;2023-03-05T14:45:39;1.60;99.90
10722;DHT22;5412;59.450;18.124;2023-03-05T14:48:06;1.60;99.90
10722;DHT22;5412;59.450;18.124;2023-03-05T14:50:34;1.30;99.90
10722;DHT22;5412;59.450;18.124;2023-03-05T14:53:18;1.20;99.90
10722;DHT22;5412;59.450;18.124;2023-03-05T14:55:50;1.20;99.90
10722;DHT22;5412;59.450;18.124;2023-03-05T14:58:20;1.20;99.90
10722;DHT22;5412;59.450;18.124;2023-03-05T15:00:47;1.00;99.90
10722;DHT22;5412;59.450;18.124;2023-03-05T15:03:15;1.00;99.90
10722;DHT22;5412;59.450;18.124;2023-03-05T15:05:42;1.00;99.90
10722;DHT22;5412;59.450;18.124;2023-03-05T15:08:14;1.20;99.90
10722;DHT22;5412;59.450;18.124;2023-03-05T15:10:41;1.20;99.90
10722;DHT22;5412;59.450;18.124;2023-03-05T15:13:07;1.20;99.90
10722;DHT22;5412;59.450;18.124;2023-03-05T15:15:33;1.30;99.90
10722;DHT22;5412;59.450;18.124;2023-03-05T15:17:59;1.40;99.90
10722;DHT22;5412;59.450;18.124;2023-03-05T15:20:28;1.40;99.90
10722;DHT22;5412;59.450;18.124;2023-03-05T15:22:54;1.50;99.90
10722;DHT22;5412;59.450;18.124;2023-03-05T15:25:21;1.40;99.90
10722;DHT22;5412;59.450;18.124;2023-03-05T15:27:47;1.60;99.90
10722;DHT22;5412;59.450;18.124;2023-03-05T15:30:24;1.60;99.90
10722;DHT22;5412;59.450;18.124;2023-03-05T15:32:52;1.80;99.90
10722;DHT22;5412;59.450;18.124;2023-03-05T15:35:19;1.70;99.90
10722;DHT22;5412;59.450;18.124;2023-03-05T15:37:45;1.80;99.90
10722;DHT22;5412;59.450;18.124;2023-03-05T15:40:11;2.00;99.90
10722;DHT22;5412;59.450;18.124;2023-03-05T15:42:38;2.10;99.90
10722;DHT22;5412;59.450;18.124;2023-03-05T15:45:04;2.20;99.90
10722;DHT22;5412;59.450;18.124;2023-03-05T15:47:30;2.20;99.90
10722;DHT22;5412;59.450;18.124;2023-03-05T15:49:55;2.30;99.90
10722;DHT22;5412;59.450;18.124;2023-03-05T15:52:21;2.30;99.90
10722;DHT22;5412;59.450;18.124;2023-03-05T15:54:47;2.40;99.90
10722;DHT22;5412;59.450;18.124;2023-03-05T15:57:13;2.40;99.90
10722;DHT22;5412;59.450;18.124;2023-03-05T15:59:38;2.40;99.90
10722;DHT22;5412;59.450;18.124;2023-03-05T16:02:05;2.50;99.90
10722;DHT22;5412;59.450;18.124;2023-03-05T16:04:31;2.40;99.90
10722;DHT22;5412;59.450;18.124;2023-03-05T16:06:58;2.50;99.90
10722;DHT22;5412;59.450;18.124;2023-03-05T16:09:30;2.50;99.90
10722;DHT22;5412;59.450;18.124;2023-03-05T16:11:57;2.40;99.90
10722;DHT22;5412;59.450;18.124;2023-03-05T16:14:25;2.50;99.90
10722;DHT22;5412;59.450;18.124;2023-03-05T16:16:54;2.50;99.90
10722;DHT22;5412;59.450;18.124;2023-03-05T16:19:22;2.50;99.90
10722;DHT22;5412;59.450;18.124;2023-03-05T16:21:49;2.60;99.90
10722;DHT22;5412;59.450;18.124;2023-03-05T16:24:15;2.50;99.90
10722;DHT22;5412;59.450;18.124;2023-03-05T16:26:41;2.50;99.90
10722;DHT22;5412;59.450;18.124;2023-03-05T16:29:07;2.30;99.90
10722;DHT22;5412;59.450;18.124;2023-03-05T16:31:34;2.20;99.90
10722;DHT22;5412;59.450;18.124;2023-03-05T16:34:00;1.80;99.90
10722;DHT22;5412;59.450;18.124;2023-03-05T16:36:30;1.70;99.90
10722;DHT22;5412;59.450;18.124;2023-03-05T16:39:00;1.50;99.90
10722;DHT22;5412;59.450;18.124;2023-03-05T16:41:26;1.40;99.90
10722;DHT22;5412;59.450;18.124;2023-03-05T16:43:52;1.40;99.90
10722;DHT22;5412;59.450;18.124;2023-03-05T16:46:22;1.30;99.90
10722;DHT22;5412;59.450;18.124;2023-03-05T16:48:48;1.00;99.90
10722;DHT22;5412;59.450;18.124;2023-03-05T16:51:14;1.00;99.90
10722;DHT22;5412;59.450;18.124;2023-03-05T16:53:40;0.70;99.90
10722;DHT22;5412;59.450;18.124;2023-03-05T16:56:07;0.60;99.90
10722;DHT22;5412;59.450;18.124;2023-03-05T16:58:35;0.70;99.90
10722;DHT22;5412;59.450;18.124;2023-03-05T17:01:01;0.70;99.90
10722;DHT22;5412;59.450;18.124;2023-03-05T17:03:28;0.60;99.90
10722;DHT22;5412;59.450;18.124;2023-03-05T17:05:54;0.80;99.90
10722;DHT22;5412;59.450;18.124;2023-03-05T17:08:20;0.60;99.90
10722;DHT22;5412;59.450;18.124;2023-03-05T17:10:48;0.70;99.90
10722;DHT22;5412;59.450;18.124;2023-03-05T17:13:14;0.60;99.90
10722;DHT22;5412;59.450;18.124;2023-03-05T17:15:40;0.40;99.90
10722;DHT22;5412;59.450;18.124;2023-03-05T17:18:06;0.00;99.90
10722;DHT22;5412;59.450;18.124;2023-03-05T17:20:32;-0.40;99.90
10722;DHT22;5412;59.450;18.124;2023-03-05T17:23:00;-0.60;99.90
10722;DHT22;5412;59.450;18.124;2023-03-05T17:25:26;-0.50;99.90
10722;DHT22;5412;59.450;18.124;2023-03-05T17:27:53;-0.60;99.90
10722;DHT22;5412;59.450;18.124;2023-03-05T17:30:18;-0.60;99.90
10722;DHT22;5412;59.450;18.124;2023-03-05T17:32:44;-0.60;99.90
10722;DHT22;5412;59.450;18.124;2023-03-05T17:35:18;-0.30;99.90
10722;DHT22;5412;59.450;18.124;2023-03-05T17:37:43;-0.20;99.90
10722;DHT22;5412;59.450;18.124;2023-03-05T17:40:13;-0.10;99.90